Etusivu
METAR-TAF:

METAR-TAF

Lentoasemat :

Gibraltarin lentoasema

Gibraltar, Gibraltar

Leveyspiiri: 36-09N, Pituuspiiri: 005-21W, korkeus merenpinnasta: 5 m

Tämänhetkinen sää

Tämä raportti tehtiin 27 minuuttia sitten, kello 13.22 UTC
Tuuli 10 kn lounaasta
Lämpötila 18°C
Kosteus 68%
Ilmanpaine 1015 hPa
Näkyvyys 10 km tai enemmän
Muutamia pilviä 2500 ft:n korkeudessa

METAR: LXGB 121322Z 23010KT 9999 FEW025 18/12 Q1015 NOSIG RMK BLU BLU

Aika: 14:49 (13:49 UTC)

Sääennuste

Tämä raportti tehtiin 1 tunti ja 39 minuuttia sitten, kello 12.10 UTC
Ennuste voimassa 12. päivästä klo 12 UTC - 12. päivään klo 21 UTC
Tuuli 15 kn lännestä
Näkyvyys 10 km tai enemmän
ei pilviä alle 1500 m:ssä eikä cumulonimbus-pilviä
Todennäköisyys 40% :
Ajoittain
12. päivästä klo 12 UTC - 12. päivään klo 16 UTC
Tuuli 16 kn lännestä puuskistuen 26 kn:hen

TAF: LXGB 121210Z 1212/1221 27015KT CAVOK PROB40 TEMPO 1212/1216 27016G26KT

Säähavainnot ja -ennusteet yli 4000 lentoasemalta (METAR- ja TAF-raportit).

Käytössä olevat sääasemat on merkitty karttaan keltaisilla ja punaisilla pisteillä.

Aseta hiiri pisteen päälle nähdäksesi sääaseman nimen.

Klikkaa sitten nähdäksesi säähavainnot ja -ennusteet.

Kartan vaihtaminen: klikkaa mustalla rastilla varustettuja vihreitä pisteitä, niin voit zoomata sisään; viivalla varustettua vihreää pistettä, niin voit zoomata ulos tai vihreitä nuolia, niin pääset viereisille kartoille.


METAR-TAF: